Time;durP1;ratioP1;P1;durP2;ratioP2;P2;SDS_P1;SDS_P2;PMS_P1;PMS_P2;Temp;Humidity;BMP_temperature;BMP_pressure;BME280_temperature;BME280_humidity;BME280_pressure;Samples;Min_cycle;Max_cycle;Signal;HPM_P1;HPM_P2
2022/12/04 00:02:07;;;;;;;52.80;29.23;;;;;;;;;;5130454;27;20043;-72
2022/12/04 00:04:33;;;;;;;61.13;31.95;;;;;;;;;;5131971;27;20045;-72
2022/12/04 00:06:59;;;;;;;58.35;30.65;;;;;;;;;;5129652;27;20107;-72
2022/12/04 00:09:25;;;;;;;54.28;29.50;;;;;;;;;;5133944;27;20043;-73
2022/12/04 00:11:51;;;;;;;50.63;27.70;;;;;;;;;;5122750;27;20386;-72
2022/12/04 00:14:17;;;;;;;55.20;29.05;;;;;;;;;;5130863;27;20459;-72
2022/12/04 00:16:44;;;;;;;59.97;31.08;;;;;;;;;;5131873;27;20043;-72
2022/12/04 00:19:10;;;;;;;51.35;28.40;;;;;;;;;;5131441;27;20042;-72
2022/12/04 00:21:36;;;;;;;55.20;30.50;;;;;;;;;;5131292;27;20685;-72
2022/12/04 00:24:02;;;;;;;58.40;31.65;;;;;;;;;;5134328;27;20054;-73
2022/12/04 00:26:30;;;;;;;55.75;31.52;;;;;;;;;;5131853;27;20394;-72
2022/12/04 00:28:56;;;;;;;57.20;32.72;;;;;;;;;;5134663;27;20050;-73
2022/12/04 00:31:23;;;;;;;56.28;31.88;;;;;;;;;;5123327;27;20039;-72
2022/12/04 00:33:50;;;;;;;53.63;27.73;;;;;;;;;;5123592;27;20478;-73
2022/12/04 00:36:17;;;;;;;54.90;29.40;;;;;;;;;;5117791;27;20085;-73
2022/12/04 00:38:43;;;;;;;55.75;30.88;;;;;;;;;;5132553;27;20489;-73
2022/12/04 00:41:10;;;;;;;57.03;30.38;;;;;;;;;;5122381;27;20040;-73
2022/12/04 00:43:36;;;;;;;54.58;30.60;;;;;;;;;;5124703;27;20043;-72
2022/12/04 00:46:02;;;;;;;55.85;31.23;;;;;;;;;;5133436;27;20076;-71
2022/12/04 00:48:28;;;;;;;59.25;31.50;;;;;;;;;;5129763;27;20096;-72
2022/12/04 00:50:54;;;;;;;57.40;31.80;;;;;;;;;;5130563;27;20039;-72
2022/12/04 00:53:21;;;;;;;56.10;29.65;;;;;;;;;;5126701;27;20039;-72
2022/12/04 00:55:47;;;;;;;53.53;30.63;;;;;;;;;;5121200;27;20117;-72
2022/12/04 00:58:13;;;;;;;56.00;30.88;;;;;;;;;;5117089;27;20051;-72
2022/12/04 01:00:40;;;;;;;55.65;31.65;;;;;;;;;;5125845;27;20035;-72
2022/12/04 01:03:07;;;;;;;57.08;32.60;;;;;;;;;;5130097;27;20048;-72
2022/12/04 01:05:38;;;;;;;56.28;31.33;;;;;;;;;;5121406;27;20046;-71
2022/12/04 01:08:04;;;;;;;55.42;31.08;;;;;;;;;;5121373;27;20431;-72
2022/12/04 01:10:30;;;;;;;52.08;29.40;;;;;;;;;;5130455;27;20394;-72
2022/12/04 01:12:56;;;;;;;61.08;34.22;;;;;;;;;;5129676;27;20469;-72
2022/12/04 01:15:22;;;;;;;57.17;30.63;;;;;;;;;;5131936;27;20401;-71
2022/12/04 01:17:48;;;;;;;63.92;34.50;;;;;;;;;;5130963;27;20035;-72
2022/12/04 01:20:15;;;;;;;54.10;29.55;;;;;;;;;;5124376;27;20043;-72
2022/12/04 01:22:41;;;;;;;54.00;30.58;;;;;;;;;;5128270;27;20070;-72
2022/12/04 01:25:07;;;;;;;53.88;31.65;;;;;;;;;;5129032;27;20043;-72
2022/12/04 01:27:33;;;;;;;54.35;30.63;;;;;;;;;;5129573;28;20035;-72
2022/12/04 01:29:59;;;;;;;55.40;30.65;;;;;;;;;;5132276;28;20043;-72
2022/12/04 01:32:25;;;;;;;55.63;30.92;;;;;;;;;;5126908;28;20050;-72
2022/12/04 01:34:51;;;;;;;56.20;31.10;;;;;;;;;;5123234;28;20497;-71
2022/12/04 01:37:17;;;;;;;57.40;32.75;;;;;;;;;;5123024;28;20035;-71
2022/12/04 01:39:43;;;;;;;59.90;32.70;;;;;;;;;;5118541;28;20035;-72
2022/12/04 01:42:13;;;;;;;58.80;32.50;;;;;;;;;;5132003;28;20438;-72
2022/12/04 01:44:41;;;;;;;55.30;29.85;;;;;;;;;;5129302;28;20043;-72
2022/12/04 01:47:09;;;;;;;52.88;30.60;;;;;;;;;;5131593;28;20051;-71
2022/12/04 01:49:45;;;;;;;60.33;32.08;;;;;;;;;;5129546;28;20528;-72
2022/12/04 01:52:17;;;;;;;57.28;31.13;;;;;;;;;;5127335;28;20043;-72
2022/12/04 01:54:45;;;;;;;54.95;31.45;;;;;;;;;;5124747;28;20036;-72
2022/12/04 01:57:13;;;;;;;58.92;33.97;;;;;;;;;;5121323;28;20047;-71
2022/12/04 01:59:42;;;;;;;57.88;32.30;;;;;;;;;;5132368;28;20562;-72
2022/12/04 02:02:10;;;;;;;56.65;33.15;;;;;;;;;;5128504;28;20036;-72
2022/12/04 02:04:38;;;;;;;58.20;31.02;;;;;;;;;;5125991;28;20042;-72
2022/12/04 02:07:04;;;;;;;60.38;32.67;;;;;;;;;;5131994;28;20040;-72
2022/12/04 02:09:30;;;;;;;59.85;33.28;;;;;;;;;;5128324;28;20047;-72
2022/12/04 02:11:58;;;;;;;57.10;32.30;;;;;;;;;;5124926;28;20120;-72
2022/12/04 02:14:33;;;;;;;57.22;31.70;;;;;;;;;;5118286;28;20044;-72
2022/12/04 02:17:08;;;;;;;58.13;32.13;;;;;;;;;;5136688;22;20049;-94
2022/12/04 02:19:58;;;;;;;56.75;31.85;;;;;;;;;;5040443;28;20044;-96
2022/12/04 02:22:27;;;;;;;59.47;31.50;;;;;;;;;;4949769;28;20054;-94
2022/12/04 02:24:58;;;;;;;58.13;32.35;;;;;;;;;;4967624;28;20148;-96
2022/12/04 02:27:33;;;;;;;59.70;33.13;;;;;;;;;;4963556;28;20146;-94
2022/12/04 02:30:03;;;;;;;60.88;32.22;;;;;;;;;;4980456;28;20133;-95
2022/12/04 02:32:35;;;;;;;57.78;32.55;;;;;;;;;;4959348;28;20035;-95
2022/12/04 02:35:05;;;;;;;61.17;35.25;;;;;;;;;;4987452;28;20046;-96
2022/12/04 02:37:49;;;;;;;58.30;33.55;;;;;;;;;;4961986;28;20038;-94
2022/12/04 02:40:18;;;;;;;60.20;34.75;;;;;;;;;;4957177;28;20058;-95
2022/12/04 02:42:47;;;;;;;61.80;34.83;;;;;;;;;;4973555;28;20038;-95
2022/12/04 02:45:15;;;;;;;59.83;33.80;;;;;;;;;;4980644;28;20053;-95
2022/12/04 02:47:42;;;;;;;61.00;34.55;;;;;;;;;;4969763;28;20495;-95
2022/12/04 02:50:27;;;;;;;58.65;32.72;;;;;;;;;;5013025;28;20086;-94
2022/12/04 02:52:58;;;;;;;60.47;33.88;;;;;;;;;;4974345;28;20050;-95
2022/12/04 02:55:27;;;;;;;62.10;35.05;;;;;;;;;;4973380;28;20089;-94
2022/12/04 02:57:57;;;;;;;62.05;34.03;;;;;;;;;;4972430;28;20038;-95
2022/12/04 03:00:23;;;;;;;65.28;36.67;;;;;;;;;;5044586;28;20045;-96
2022/12/04 03:02:56;;;;;;;62.08;35.42;;;;;;;;;;5034207;28;20043;-94
2022/12/04 03:05:28;;;;;;;62.72;36.78;;;;;;;;;;5070405;28;20516;-94
2022/12/04 03:08:01;;;;;;;54.58;29.75;;;;;;;;;;5052910;28;20441;-95
2022/12/04 03:10:29;;;;;;;58.80;31.55;;;;;;;;;;5052796;28;20075;-94
2022/12/04 03:13:14;;;;;;;62.97;36.65;;;;;;;;;;5043796;28;20485;-95
2022/12/04 03:15:48;;;;;;;63.08;36.20;;;;;;;;;;5040762;28;20134;-96
2022/12/04 03:18:19;;;;;;;65.97;36.35;;;;;;;;;;5052709;28;20059;-95
2022/12/04 03:20:50;;;;;;;60.90;33.40;;;;;;;;;;5050920;28;20165;-95
2022/12/04 03:23:22;;;;;;;62.15;35.63;;;;;;;;;;5052895;28;20040;-95
2022/12/04 03:25:57;;;;;;;61.75;36.53;;;;;;;;;;5036660;28;20049;-96
2022/12/04 03:28:33;;;;;;;64.60;35.25;;;;;;;;;;5051953;28;20060;-95
2022/12/04 03:31:02;;;;;;;65.63;36.80;;;;;;;;;;5074388;28;20093;-95
2022/12/04 03:33:31;;;;;;;64.32;35.97;;;;;;;;;;5053389;28;20029;-96
2022/12/04 03:36:02;;;;;;;66.28;36.20;;;;;;;;;;5067882;28;20087;-96
2022/12/04 03:38:43;;;;;;;68.18;38.13;;;;;;;;;;5048457;28;20057;-95
2022/12/04 03:41:20;;;;;;;65.35;37.08;;;;;;;;;;5046730;28;20048;-93
2022/12/04 03:43:46;;;;;;;69.78;37.15;;;;;;;;;;5022501;28;20409;-95
2022/12/04 03:46:18;;;;;;;68.32;36.78;;;;;;;;;;5068686;28;20037;-96
2022/12/04 03:48:50;;;;;;;68.20;37.05;;;;;;;;;;5035211;28;20097;-94
2022/12/04 03:51:23;;;;;;;65.50;36.30;;;;;;;;;;5050692;28;20048;-95
2022/12/04 03:53:51;;;;;;;70.88;38.13;;;;;;;;;;5049311;28;20045;-96
2022/12/04 03:56:24;;;;;;;63.85;33.58;;;;;;;;;;5049394;28;20036;-95
2022/12/04 03:58:56;;;;;;;67.38;36.60;;;;;;;;;;5051605;28;20119;-95
2022/12/04 04:01:24;;;;;;;64.80;36.67;;;;;;;;;;5068102;28;20036;-94
2022/12/04 04:03:52;;;;;;;57.00;31.52;;;;;;;;;;5053297;28;20051;-94
2022/12/04 04:06:21;;;;;;;66.47;33.58;;;;;;;;;;5070718;28;20036;-96
2022/12/04 04:08:49;;;;;;;67.90;37.00;;;;;;;;;;5035685;28;20041;-95
2022/12/04 04:11:20;;;;;;;65.30;36.85;;;;;;;;;;5070741;28;20040;-96
2022/12/04 04:25:09;;;;;;;61.25;30.95;;;;;;;;;;5051223;28;20087;-95
2022/12/04 04:27:35;;;;;;;;;;;;;;;;;;5052219;28;20460;-95
2022/12/04 04:30:01;;;;;;;61.17;35.38;;;;;;;;;;5028999;28;19983;-94
2022/12/04 04:32:37;;;;;;;63.42;34.65;;;;;;;;;;5050134;28;20400;-94
2022/12/04 04:35:09;;;;;;;64.97;34.88;;;;;;;;;;5059244;28;20049;-95
2022/12/04 04:37:50;;;;;;;61.35;32.25;;;;;;;;;;5053408;28;20028;-95
2022/12/04 04:40:26;;;;;;;64.13;35.28;;;;;;;;;;5039441;28;20036;-94
2022/12/04 04:42:52;;;;;;;59.88;32.22;;;;;;;;;;5051161;28;20040;-96
2022/12/04 04:45:21;;;;;;;57.35;29.33;;;;;;;;;;5051016;28;20036;-94
2022/12/04 04:47:56;;;;;;;68.80;36.70;;;;;;;;;;5051463;28;20032;-93
2022/12/04 04:50:22;;;;;;;67.65;35.58;;;;;;;;;;5030633;28;20036;-95
2022/12/04 04:52:51;;;;;;;64.80;35.15;;;;;;;;;;5046607;28;20037;-95
2022/12/04 04:55:19;;;;;;;63.92;36.45;;;;;;;;;;5069343;28;20032;-95
2022/12/04 04:57:45;;;;;;;64.80;34.08;;;;;;;;;;5034742;28;20036;-95
2022/12/04 05:00:12;;;;;;;61.80;34.13;;;;;;;;;;5047766;28;20451;-94
2022/12/04 05:02:38;;;;;;;64.65;36.40;;;;;;;;;;5031966;28;20074;-95
2022/12/04 05:05:04;;;;;;;65.93;36.15;;;;;;;;;;5047161;28;20052;-95
2022/12/04 05:07:30;;;;;;;58.40;31.42;;;;;;;;;;5049120;28;20344;-95
2022/12/04 05:09:57;;;;;;;61.92;34.30;;;;;;;;;;5068129;28;20519;-95
2022/12/04 05:12:23;;;;;;;64.13;35.03;;;;;;;;;;5052095;28;20041;-95
2022/12/04 05:14:49;;;;;;;57.22;30.10;;;;;;;;;;5051029;28;20381;-95
2022/12/04 05:17:15;;;;;;;61.15;34.03;;;;;;;;;;5067707;28;20067;-94
2022/12/04 05:19:53;;;;;;;60.97;33.00;;;;;;;;;;5051218;28;20613;-95
2022/12/04 05:22:21;;;;;;;63.53;34.75;;;;;;;;;;5051511;28;20040;-96
2022/12/04 05:24:47;;;;;;;60.50;31.27;;;;;;;;;;5044056;28;20041;-96
2022/12/04 05:27:15;;;;;;;54.58;29.63;;;;;;;;;;5033381;28;20051;-95
2022/12/04 05:29:41;;;;;;;63.72;35.38;;;;;;;;;;5052464;28;20037;-95
2022/12/04 05:32:08;;;;;;;62.63;33.83;;;;;;;;;;5046239;28;20505;-95
2022/12/04 05:34:34;;;;;;;62.17;33.47;;;;;;;;;;5049930;28;20047;-95
2022/12/04 05:37:00;;;;;;;62.20;33.63;;;;;;;;;;5049949;28;20043;-95
2022/12/04 05:39:26;;;;;;;60.83;33.08;;;;;;;;;;5048687;28;20208;-96
2022/12/04 05:41:52;;;;;;;60.10;33.35;;;;;;;;;;5033980;28;20041;-95
2022/12/04 05:44:18;;;;;;;65.15;34.65;;;;;;;;;;5065640;28;20048;-96
2022/12/04 05:46:44;;;;;;;63.15;34.38;;;;;;;;;;5048244;28;20044;-95
2022/12/04 05:49:10;;;;;;;62.80;35.90;;;;;;;;;;5047635;28;20067;-96
2022/12/04 05:51:36;;;;;;;63.28;34.58;;;;;;;;;;5043720;28;20048;-94
2022/12/04 05:54:02;;;;;;;56.67;29.77;;;;;;;;;;5051417;28;20115;-96
2022/12/04 05:56:28;;;;;;;61.33;31.63;;;;;;;;;;5048960;28;20040;-95
2022/12/04 05:58:55;;;;;;;63.28;34.50;;;;;;;;;;5069661;28;20043;-95
2022/12/04 06:01:22;;;;;;;57.17;30.95;;;;;;;;;;5052825;28;20539;-95
2022/12/04 06:03:48;;;;;;;59.53;33.20;;;;;;;;;;5055810;28;20401;-96
2022/12/04 06:06:16;;;;;;;61.83;34.00;;;;;;;;;;5056926;28;20115;-96
2022/12/04 06:08:42;;;;;;;62.53;32.85;;;;;;;;;;5076697;28;20107;-95
2022/12/04 06:11:18;;;;;;;61.88;34.28;;;;;;;;;;5049959;28;20043;-94
2022/12/04 06:13:45;;;;;;;68.07;35.80;;;;;;;;;;5075626;28;20395;-96
2022/12/04 06:16:15;;;;;;;62.47;31.13;;;;;;;;;;5055434;28;20492;-95
2022/12/04 06:18:41;;;;;;;67.30;35.03;;;;;;;;;;5052644;28;20098;-95
2022/12/04 06:21:08;;;;;;;68.90;35.88;;;;;;;;;;5037815;28;20041;-95
2022/12/04 06:23:34;;;;;;;65.22;34.78;;;;;;;;;;5063854;28;20120;-94
2022/12/04 06:26:07;;;;;;;66.25;35.28;;;;;;;;;;5053629;28;20059;-96
2022/12/04 06:28:34;;;;;;;68.88;34.95;;;;;;;;;;5038318;28;20044;-95
2022/12/04 06:31:01;;;;;;;65.15;34.92;;;;;;;;;;5038333;28;20036;-95
2022/12/04 06:33:27;;;;;;;62.25;34.13;;;;;;;;;;5037117;28;20440;-94
2022/12/04 06:36:10;;;;;;;66.97;36.30;;;;;;;;;;5037580;28;20746;-96
2022/12/04 06:38:36;;;;;;;79.28;39.33;;;;;;;;;;5065040;28;20101;-95
2022/12/04 06:41:04;;;;;;;64.72;34.90;;;;;;;;;;5069684;28;20276;-93
2022/12/04 06:43:30;;;;;;;69.70;37.30;;;;;;;;;;5053419;28;20097;-95
2022/12/04 06:46:00;;;;;;;76.40;40.40;;;;;;;;;;5050444;28;20049;-96
2022/12/04 06:48:28;;;;;;;71.95;39.88;;;;;;;;;;5035461;28;20047;-94
2022/12/04 06:50:58;;;;;;;72.18;37.05;;;;;;;;;;5059349;28;20117;-95
2022/12/04 06:53:26;;;;;;;67.25;36.03;;;;;;;;;;5032385;28;20045;-94
2022/12/04 06:55:52;;;;;;;68.40;35.33;;;;;;;;;;5043462;28;20058;-95
2022/12/04 06:58:18;;;;;;;67.35;34.33;;;;;;;;;;5033980;28;20625;-94
2022/12/04 07:00:44;;;;;;;68.32;33.58;;;;;;;;;;5044238;28;20445;-93
2022/12/04 07:03:10;;;;;;;68.75;35.78;;;;;;;;;;5045962;28;20135;-94
2022/12/04 07:05:36;;;;;;;65.35;34.78;;;;;;;;;;5037315;28;20068;-93
2022/12/04 07:08:03;;;;;;;70.20;36.42;;;;;;;;;;5028837;28;20068;-94
2022/12/04 07:10:29;;;;;;;67.60;35.40;;;;;;;;;;5027526;28;20039;-94
2022/12/04 07:12:55;;;;;;;70.60;36.17;;;;;;;;;;5045022;28;20037;-94
2022/12/04 07:15:21;;;;;;;68.55;36.30;;;;;;;;;;5064235;28;20040;-94
2022/12/04 07:17:47;;;;;;;69.60;36.08;;;;;;;;;;5045467;28;20059;-94
2022/12/04 07:20:13;;;;;;;72.82;34.78;;;;;;;;;;5028128;28;20066;-94
2022/12/04 07:22:39;;;;;;;74.05;37.70;;;;;;;;;;5062689;28;20126;-94
2022/12/04 07:25:05;;;;;;;72.55;37.05;;;;;;;;;;5044242;28;20040;-94
2022/12/04 07:27:31;;;;;;;70.13;36.97;;;;;;;;;;5025676;28;20133;-94
2022/12/04 07:29:57;;;;;;;73.10;35.25;;;;;;;;;;5061553;28;20227;-96
2022/12/04 07:32:23;;;;;;;67.32;34.35;;;;;;;;;;5041456;28;20040;-94
2022/12/04 07:34:49;;;;;;;71.05;36.78;;;;;;;;;;5046459;28;20033;-95
2022/12/04 07:37:15;;;;;;;76.45;36.90;;;;;;;;;;5062532;28;20400;-93
2022/12/04 07:39:41;;;;;;;74.57;36.53;;;;;;;;;;5044044;28;20055;-94
2022/12/04 07:42:08;;;;;;;74.22;37.13;;;;;;;;;;5030693;28;20063;-94
2022/12/04 07:44:34;;;;;;;70.47;34.03;;;;;;;;;;5027359;28;20056;-96
2022/12/04 07:47:00;;;;;;;62.50;30.42;;;;;;;;;;5044563;28;20041;-94
2022/12/04 07:49:26;;;;;;;64.35;32.92;;;;;;;;;;5024613;28;20320;-95
2022/12/04 07:51:52;;;;;;;76.13;39.28;;;;;;;;;;5043062;28;20072;-95
2022/12/04 07:54:18;;;;;;;70.07;35.85;;;;;;;;;;5030403;28;20119;-95
2022/12/04 07:56:44;;;;;;;74.32;35.65;;;;;;;;;;5044660;28;20037;-94
2022/12/04 07:59:10;;;;;;;69.57;35.78;;;;;;;;;;5044914;28;20048;-94
2022/12/04 08:01:36;;;;;;;70.85;35.05;;;;;;;;;;5062520;28;20064;-95
2022/12/04 08:04:03;;;;;;;70.13;34.33;;;;;;;;;;5028050;28;20049;-94
2022/12/04 08:06:29;;;;;;;71.22;38.28;;;;;;;;;;5027813;28;20044;-95
2022/12/04 08:08:56;;;;;;;76.45;39.88;;;;;;;;;;5047140;28;20097;-95
2022/12/04 08:11:23;;;;;;;74.65;39.00;;;;;;;;;;5028641;28;20059;-94
2022/12/04 08:13:54;;;;;;;74.22;39.22;;;;;;;;;;5062628;28;20094;-94
2022/12/04 08:16:20;;;;;;;81.03;39.78;;;;;;;;;;5040417;28;20036;-95
2022/12/04 08:18:47;;;;;;;70.13;35.78;;;;;;;;;;5052545;28;20054;-94
2022/12/04 08:21:15;;;;;;;68.35;35.35;;;;;;;;;;5048373;28;20048;-95
2022/12/04 08:23:44;;;;;;;66.85;34.88;;;;;;;;;;5051666;28;20102;-94
2022/12/04 08:26:10;;;;;;;73.25;37.58;;;;;;;;;;5032931;28;20047;-95
2022/12/04 08:28:37;;;;;;;72.10;37.35;;;;;;;;;;5035148;28;20123;-94
2022/12/04 08:31:07;;;;;;;75.82;38.00;;;;;;;;;;5048459;28;20400;-96
2022/12/04 08:33:33;;;;;;;70.23;36.90;;;;;;;;;;5063057;28;20079;-96
2022/12/04 08:36:05;;;;;;;59.35;29.23;;;;;;;;;;5034925;28;20407;-95
2022/12/04 08:38:32;;;;;;;74.88;37.08;;;;;;;;;;5041341;28;20033;-96
2022/12/04 08:41:02;;;;;;;67.85;33.92;;;;;;;;;;5064371;28;20048;-95
2022/12/04 08:43:30;;;;;;;72.18;36.83;;;;;;;;;;5048180;28;20048;-95
2022/12/04 08:46:01;;;;;;;79.43;39.55;;;;;;;;;;5046738;28;20332;-96
2022/12/04 08:48:27;;;;;;;66.60;35.50;;;;;;;;;;5030816;28;20044;-96
2022/12/04 08:50:54;;;;;;;71.28;36.30;;;;;;;;;;5050496;28;20294;-95
2022/12/04 08:53:20;;;;;;;75.78;37.88;;;;;;;;;;5036584;28;20040;-95
2022/12/04 08:55:49;;;;;;;63.28;33.25;;;;;;;;;;5032832;28;20029;-96
2022/12/04 08:58:15;;;;;;;77.30;38.10;;;;;;;;;;5063994;28;20048;-96
2022/12/04 09:00:42;;;;;;;72.63;36.88;;;;;;;;;;5047692;28;20075;-96
2022/12/04 09:03:11;;;;;;;75.20;36.75;;;;;;;;;;5044489;28;20128;-96
2022/12/04 09:05:37;;;;;;;74.95;36.22;;;;;;;;;;5046900;28;20591;-96
2022/12/04 09:08:03;;;;;;;82.30;40.67;;;;;;;;;;5047892;28;20189;-94
2022/12/04 09:10:29;;;;;;;69.35;36.75;;;;;;;;;;5044220;28;20040;-93
2022/12/04 09:12:55;;;;;;;67.10;37.30;;;;;;;;;;5048459;28;20040;-94
2022/12/04 09:15:21;;;;;;;68.85;37.08;;;;;;;;;;5057933;28;20134;-95
2022/12/04 09:17:47;;;;;;;72.03;37.78;;;;;;;;;;5066067;28;20054;-95
2022/12/04 09:20:13;;;;;;;71.13;37.30;;;;;;;;;;5048193;28;20422;-94
2022/12/04 09:22:39;;;;;;;74.13;39.50;;;;;;;;;;5032124;28;20045;-96
2022/12/04 09:25:08;;;;;;;67.03;36.13;;;;;;;;;;5049005;28;20501;-95
2022/12/04 09:27:40;;;;;;;62.58;33.92;;;;;;;;;;5035600;28;20551;-94
2022/12/04 09:30:07;;;;;;;58.28;34.05;;;;;;;;;;5032792;28;20539;-95
2022/12/04 09:32:35;;;;;;;62.15;35.83;;;;;;;;;;5045559;28;20070;-96
2022/12/04 09:35:01;;;;;;;64.00;36.53;;;;;;;;;;5048665;28;20064;-96
2022/12/04 09:37:27;;;;;;;60.00;31.60;;;;;;;;;;5049032;28;20393;-95
2022/12/04 09:39:53;;;;;;;67.90;36.20;;;;;;;;;;5049284;28;20051;-95
2022/12/04 09:42:38;;;;;;;63.35;35.05;;;;;;;;;;5036403;28;20089;-96
2022/12/04 09:45:10;;;;;;;60.25;33.65;;;;;;;;;;5049520;28;20090;-96
2022/12/04 09:47:38;;;;;;;58.08;31.48;;;;;;;;;;5046442;28;20036;-94
2022/12/04 09:50:22;;;;;;;58.28;32.05;;;;;;;;;;5066407;28;20135;-93
2022/12/04 09:52:57;;;;;;;60.92;33.30;;;;;;;;;;5048149;28;20063;-96
2022/12/04 09:55:28;;;;;;;58.97;33.53;;;;;;;;;;5020590;28;20469;-96
2022/12/04 09:57:57;;;;;;;69.32;35.88;;;;;;;;;;5022808;28;20029;-96
2022/12/04 10:00:24;;;;;;;60.65;35.88;;;;;;;;;;5029525;28;20047;-95
2022/12/04 10:03:04;;;;;;;52.10;27.52;;;;;;;;;;5046375;28;20045;-95
2022/12/04 10:05:30;;;;;;;51.83;29.75;;;;;;;;;;5026844;28;20040;-95
2022/12/04 10:08:06;;;;;;;52.95;31.05;;;;;;;;;;5048816;28;20349;-94
2022/12/04 10:10:36;;;;;;;50.97;28.67;;;;;;;;;;5049625;28;20048;-95
2022/12/04 10:13:08;;;;;;;53.42;30.70;;;;;;;;;;5022818;28;20036;-95
2022/12/04 10:15:40;;;;;;;49.75;28.30;;;;;;;;;;5038994;28;20033;-96
2022/12/04 10:18:21;;;;;;;54.67;31.02;;;;;;;;;;5044761;28;20055;-95
2022/12/04 10:21:06;;;;;;;46.70;27.92;;;;;;;;;;5034861;28;20109;-96
2022/12/04 10:23:54;;;;;;;48.92;29.35;;;;;;;;;;5036691;28;20044;-94
2022/12/04 10:26:23;;;;;;;49.80;29.38;;;;;;;;;;5033407;28;20072;-95
2022/12/04 10:29:11;;;;;;;45.38;27.20;;;;;;;;;;5030695;28;20091;-93
2022/12/04 10:31:40;;;;;;;43.47;26.40;;;;;;;;;;5045915;28;20044;-96
2022/12/04 10:34:12;;;;;;;45.08;27.40;;;;;;;;;;5021328;28;20040;-95
2022/12/04 10:36:39;;;;;;;42.13;25.92;;;;;;;;;;5020165;28;20041;-94
2022/12/04 10:39:05;;;;;;;48.30;28.08;;;;;;;;;;5030637;28;20060;-94
2022/12/04 10:41:52;;;;;;;45.13;26.33;;;;;;;;;;5050283;28;20051;-95
2022/12/04 10:44:20;;;;;;;42.35;26.13;;;;;;;;;;5051852;28;20036;-95
2022/12/04 10:46:47;;;;;;;40.20;24.35;;;;;;;;;;5053013;28;20101;-95
2022/12/04 10:49:17;;;;;;;42.67;24.67;;;;;;;;;;5063888;28;20301;-94
2022/12/04 10:51:43;;;;;;;41.60;25.15;;;;;;;;;;5043706;28;20077;-94
2022/12/04 10:54:15;;;;;;;38.80;23.48;;;;;;;;;;5068458;28;20166;-96
2022/12/04 10:56:50;;;;;;;38.38;22.15;;;;;;;;;;5037557;28;20071;-96
2022/12/04 10:59:16;;;;;;;34.88;18.95;;;;;;;;;;5037762;28;20123;-94
2022/12/04 11:01:42;;;;;;;33.17;19.77;;;;;;;;;;5053361;28;20036;-96
2022/12/04 11:04:19;;;;;;;36.17;21.67;;;;;;;;;;5052852;28;20052;-94
2022/12/04 11:06:45;;;;;;;39.53;23.80;;;;;;;;;;5038834;28;20046;-93
2022/12/04 11:09:22;;;;;;;37.55;23.10;;;;;;;;;;5047590;28;20055;-95
2022/12/04 11:11:49;;;;;;;40.28;23.95;;;;;;;;;;5095288;28;20104;-95
2022/12/04 11:14:16;;;;;;;40.67;23.40;;;;;;;;;;5075133;28;20123;-95
2022/12/04 11:16:44;;;;;;;39.38;21.33;;;;;;;;;;5053327;28;20078;-95
2022/12/04 11:19:27;;;;;;;38.40;23.83;;;;;;;;;;5050868;28;20097;-95
2022/12/04 11:21:55;;;;;;;39.30;23.35;;;;;;;;;;5051948;28;20107;-94
2022/12/04 11:24:25;;;;;;;35.15;20.92;;;;;;;;;;5052319;28;20127;-95
2022/12/04 11:26:52;;;;;;;37.42;23.40;;;;;;;;;;5037042;28;20048;-95
2022/12/04 11:29:19;;;;;;;37.33;22.35;;;;;;;;;;5037460;28;20041;-95
2022/12/04 11:31:51;;;;;;;35.53;23.17;;;;;;;;;;5034825;28;20063;-96
2022/12/04 11:34:22;;;;;;;41.45;24.17;;;;;;;;;;5071005;28;20533;-93
2022/12/04 11:36:56;;;;;;;38.20;23.35;;;;;;;;;;5066196;28;20366;-94
2022/12/04 11:39:31;;;;;;;34.97;18.42;;;;;;;;;;5035367;28;20040;-95
2022/12/04 11:42:15;;;;;;;39.55;22.60;;;;;;;;;;5053035;28;20202;-96
2022/12/04 11:44:49;;;;;;;36.20;22.83;;;;;;;;;;5048475;28;20036;-96
2022/12/04 11:47:17;;;;;;;35.10;22.27;;;;;;;;;;5033893;28;20044;-95
2022/12/04 11:49:43;;;;;;;39.47;23.63;;;;;;;;;;5028604;28;20044;-95
2022/12/04 11:52:18;;;;;;;39.50;23.40;;;;;;;;;;5035381;28;20389;-94
2022/12/04 11:54:45;;;;;;;47.92;26.05;;;;;;;;;;5036450;28;20076;-94
2022/12/04 11:57:27;;;;;;;47.10;26.60;;;;;;;;;;5027586;28;20169;-96
2022/12/04 11:59:53;;;;;;;42.95;22.73;;;;;;;;;;5065023;28;20040;-95
2022/12/04 12:02:52;;;;;;;44.78;24.85;;;;;;;;;;5043452;28;20376;-94
2022/12/04 12:05:18;;;;;;;42.65;24.38;;;;;;;;;;4997777;28;20053;-95
2022/12/04 12:07:56;;;;;;;38.70;22.25;;;;;;;;;;4990403;28;20042;-95
2022/12/04 12:10:25;;;;;;;46.15;25.60;;;;;;;;;;4980514;28;20124;-95
2022/12/04 12:13:07;;;;;;;47.55;24.65;;;;;;;;;;4997959;28;20073;-93
2022/12/04 12:15:33;;;;;;;39.42;23.30;;;;;;;;;;4971414;28;20558;-95
2022/12/04 12:18:11;;;;;;;41.97;24.00;;;;;;;;;;4961156;28;20078;-94
2022/12/04 12:20:42;;;;;;;34.47;19.10;;;;;;;;;;4982910;28;20438;-96
2022/12/04 12:23:29;;;;;;;39.65;23.13;;;;;;;;;;4982467;28;20099;-96
2022/12/04 12:26:09;;;;;;;35.10;22.48;;;;;;;;;;4967793;28;20050;-94
2022/12/04 12:28:44;;;;;;;34.97;21.52;;;;;;;;;;4973682;28;20491;-95
2022/12/04 12:31:25;;;;;;;33.55;21.38;;;;;;;;;;4955824;28;20506;-95
2022/12/04 12:33:56;;;;;;;35.08;21.92;;;;;;;;;;4982011;28;20128;-96
2022/12/04 12:36:24;;;;;;;35.13;19.70;;;;;;;;;;5010719;28;20053;-95
2022/12/04 12:39:10;;;;;;;33.38;20.45;;;;;;;;;;4975919;28;20129;-94
2022/12/04 12:41:39;;;;;;;37.92;21.95;;;;;;;;;;5032678;28;20041;-95
2022/12/04 12:44:08;;;;;;;36.80;21.45;;;;;;;;;;5047303;28;20047;-95
2022/12/04 12:46:37;;;;;;;35.72;20.75;;;;;;;;;;5048753;28;20035;-94
2022/12/04 12:49:23;;;;;;;32.08;20.45;;;;;;;;;;5036121;28;20036;-94
2022/12/04 12:51:52;;;;;;;34.95;20.60;;;;;;;;;;5047503;28;20049;-94
2022/12/04 12:54:27;;;;;;;34.90;20.23;;;;;;;;;;5063758;28;20044;-96
2022/12/04 12:56:56;;;;;;;31.85;19.08;;;;;;;;;;5043252;28;20040;-94
2022/12/04 12:59:25;;;;;;;31.38;18.48;;;;;;;;;;5049811;28;20379;-95
2022/12/04 13:02:11;;;;;;;35.97;22.60;;;;;;;;;;5066020;28;20094;-95
2022/12/04 13:04:40;;;;;;;34.60;20.45;;;;;;;;;;5060304;28;20187;-94
2022/12/04 13:07:24;;;;;;;33.35;20.33;;;;;;;;;;5064895;28;20059;-94
2022/12/04 13:09:50;;;;;;;33.80;19.38;;;;;;;;;;5050277;28;20036;-94
2022/12/04 13:12:17;;;;;;;38.95;21.80;;;;;;;;;;5049345;28;20049;-94
2022/12/04 13:14:44;;;;;;;34.17;20.23;;;;;;;;;;5049923;28;20499;-94
2022/12/04 13:17:15;;;;;;;35.53;21.92;;;;;;;;;;5062046;28;20088;-95
2022/12/04 13:19:45;;;;;;;36.72;22.83;;;;;;;;;;5030135;28;20048;-94
2022/12/04 13:22:17;;;;;;;37.05;21.58;;;;;;;;;;5021175;28;20118;-95
2022/12/04 13:24:59;;;;;;;40.70;22.63;;;;;;;;;;5062186;28;20031;-95
2022/12/04 13:27:32;;;;;;;38.38;22.65;;;;;;;;;;5049594;28;20079;-95
2022/12/04 13:29:58;;;;;;;37.80;21.10;;;;;;;;;;5031503;28;20044;-94
2022/12/04 13:32:43;;;;;;;39.63;23.63;;;;;;;;;;5050328;28;20335;-95
2022/12/04 13:35:24;;;;;;;39.10;22.60;;;;;;;;;;5049581;28;20052;-93
2022/12/04 13:37:50;;;;;;;37.28;21.70;;;;;;;;;;5058968;28;20059;-94
2022/12/04 13:40:25;;;;;;;39.55;23.70;;;;;;;;;;5075043;28;20028;-95
2022/12/04 13:43:04;;;;;;;41.08;24.42;;;;;;;;;;5066743;28;20052;-96
2022/12/04 13:45:32;;;;;;;41.42;25.83;;;;;;;;;;5035221;28;20052;-96
2022/12/04 13:48:00;;;;;;;37.13;21.52;;;;;;;;;;5051102;28;20048;-95
2022/12/04 13:50:33;;;;;;;38.65;23.67;;;;;;;;;;5051042;28;20056;-94
2022/12/04 13:53:00;;;;;;;36.22;21.88;;;;;;;;;;5050846;28;20377;-95
2022/12/04 13:55:29;;;;;;;40.15;22.77;;;;;;;;;;5086473;28;20233;-93
2022/12/04 13:57:56;;;;;;;41.30;23.58;;;;;;;;;;5067300;28;20052;-94
2022/12/04 14:00:43;;;;;;;37.53;20.58;;;;;;;;;;5051123;28;20124;-94
2022/12/04 14:03:25;;;;;;;40.90;24.25;;;;;;;;;;5030933;28;20481;-94
2022/12/04 14:05:51;;;;;;;43.13;24.65;;;;;;;;;;5061419;28;20040;-94
2022/12/04 14:08:20;;;;;;;40.42;24.65;;;;;;;;;;5048852;28;20128;-95
2022/12/04 14:11:01;;;;;;;41.13;24.65;;;;;;;;;;5049002;28;20056;-94
2022/12/04 14:13:29;;;;;;;43.17;26.02;;;;;;;;;;5035218;28;20520;-93
2022/12/04 14:16:08;;;;;;;42.60;24.90;;;;;;;;;;5028869;28;20036;-95
2022/12/04 14:18:34;;;;;;;38.85;21.45;;;;;;;;;;5050723;28;20135;-93
2022/12/04 14:21:03;;;;;;;31.65;16.38;;;;;;;;;;5072277;28;20089;-93
2022/12/04 14:23:48;;;;;;;46.33;26.10;;;;;;;;;;5031858;28;20335;-93
2022/12/04 14:26:22;;;;;;;40.75;24.02;;;;;;;;;;5033183;28;20432;-93
2022/12/04 14:28:48;;;;;;;41.22;22.95;;;;;;;;;;5053161;28;20063;-94
2022/12/04 14:31:30;;;;;;;50.10;26.55;;;;;;;;;;5070760;28;20052;-94
2022/12/04 14:33:56;;;;;;;;;;;;;;;;;;5035472;28;20511;-96
2022/12/04 14:36:26;;;;;;;39.08;22.25;;;;;;;;;;5070087;28;19920;-95
2022/12/04 14:39:01;;;;;;;43.80;24.48;;;;;;;;;;5054527;28;20049;-94
2022/12/04 14:41:27;;;;;;;41.33;21.83;;;;;;;;;;5069469;28;20037;-94
2022/12/04 14:43:53;;;;;;;46.30;26.90;;;;;;;;;;5051784;28;20046;-92
2022/12/04 14:46:31;;;;;;;44.83;25.42;;;;;;;;;;5033953;28;20230;-93